createdAt,value
2016-07-18T00:00:20.038Z,960.54
2016-07-18T00:01:16.158Z,960.51
2016-07-18T00:02:15.697Z,960.51
2016-07-18T00:03:21.043Z,960.55
2016-07-18T00:04:17.966Z,960.56
2016-07-18T00:05:16.886Z,960.57
2016-07-18T00:06:20.408Z,960.54
2016-07-18T00:07:40.573Z,960.52
2016-07-18T00:08:44.314Z,960.54
2016-07-18T00:09:38.309Z,960.52
2016-07-18T00:10:39.957Z,960.54
2016-07-18T00:11:17.699Z,960.55
2016-07-18T00:12:32.275Z,960.55
2016-07-18T00:13:23.356Z,960.51
2016-07-18T00:14:37.714Z,960.56
2016-07-18T00:15:30.357Z,960.58
2016-07-18T00:16:16.875Z,960.51
2016-07-18T00:17:34.905Z,960.51
2016-07-18T00:18:32.579Z,960.52
2016-07-18T00:19:33.948Z,960.53
2016-07-18T00:20:34.230Z,960.51
2016-07-18T00:21:19.459Z,960.50
2016-07-18T00:22:28.582Z,960.51
2016-07-18T00:23:31.768Z,960.48
2016-07-18T00:24:31.767Z,960.52
2016-07-18T00:25:31.421Z,960.50
2016-07-18T00:26:21.005Z,960.48
2016-07-18T00:27:39.216Z,960.49
2016-07-18T00:28:34.142Z,960.46
2016-07-18T00:29:38.867Z,960.48
2016-07-18T00:30:29.209Z,960.47
2016-07-18T00:31:29.298Z,960.49
2016-07-18T00:32:31.026Z,960.43
2016-07-18T00:33:40.292Z,960.45
2016-07-18T00:34:13.586Z,960.45
2016-07-18T00:35:38.186Z,960.45
2016-07-18T00:36:21.585Z,960.43
2016-07-18T00:37:38.461Z,960.39
2016-07-18T00:38:23.079Z,960.40
2016-07-18T00:39:39.584Z,960.40
2016-07-18T00:40:30.956Z,960.42
2016-07-18T00:41:19.625Z,960.43
2016-07-18T00:42:22.593Z,960.37
2016-07-18T00:43:39.474Z,960.43
2016-07-18T00:44:28.282Z,960.41
2016-07-18T00:45:22.905Z,960.41
2016-07-18T00:46:18.793Z,960.40
2016-07-18T00:47:28.150Z,960.45
2016-07-18T00:48:26.450Z,960.38
2016-07-18T00:49:27.450Z,960.40
2016-07-18T00:50:40.755Z,960.35
2016-07-18T00:51:19.875Z,960.34
2016-07-18T00:52:22.385Z,960.34
2016-07-18T00:53:43.347Z,960.37
2016-07-18T00:54:43.788Z,960.40
2016-07-18T00:55:32.626Z,960.38
2016-07-18T00:56:23.603Z,960.40
2016-07-18T00:57:30.941Z,960.35
2016-07-18T00:58:31.958Z,960.37
2016-07-18T00:59:32.714Z,960.34
2016-07-18T01:00:32.636Z,960.39
2016-07-18T01:01:21.687Z,960.35
2016-07-18T01:02:35.631Z,960.34
2016-07-18T01:03:36.713Z,960.37
2016-07-18T01:04:39.732Z,960.34
2016-07-18T01:05:38.787Z,960.32
2016-07-18T01:06:13.695Z,960.33
2016-07-18T01:07:18.098Z,960.32
2016-07-18T01:08:22.025Z,960.24
2016-07-18T01:09:14.068Z,960.29
2016-07-18T01:10:17.501Z,960.25
2016-07-18T01:11:14.717Z,960.24
2016-07-18T01:12:22.956Z,960.20
2016-07-18T01:13:38.862Z,960.25
2016-07-18T01:14:45.899Z,960.22
2016-07-18T01:15:37.632Z,960.22
2016-07-18T01:16:23.693Z,960.24
2016-07-18T01:17:23.468Z,960.19
2016-07-18T01:18:37.044Z,960.17
2016-07-18T01:19:39.490Z,960.20
2016-07-18T01:20:33.703Z,960.19
2016-07-18T01:21:22.627Z,960.18
2016-07-18T01:22:27.828Z,960.16
2016-07-18T01:23:32.758Z,960.19
2016-07-18T01:24:27.189Z,960.15
2016-07-18T01:25:29.917Z,960.14
2016-07-18T01:26:32.324Z,960.17
2016-07-18T01:27:21.582Z,960.15
2016-07-18T01:28:26.658Z,960.17
2016-07-18T01:29:24.458Z,960.16
2016-07-18T01:30:26.636Z,960.12
2016-07-18T01:31:27.111Z,960.17
2016-07-18T01:32:28.347Z,960.12
2016-07-18T01:33:39.127Z,960.14
2016-07-18T01:34:37.109Z,960.14
2016-07-18T01:35:39.860Z,960.15
2016-07-18T01:36:21.723Z,960.09
2016-07-18T01:37:17.550Z,960.14
2016-07-18T01:38:33.527Z,960.08
2016-07-18T01:39:49.135Z,960.13
2016-07-18T01:40:31.544Z,960.14
2016-07-18T01:41:21.114Z,960.14
2016-07-18T01:42:32.735Z,960.13
2016-07-18T01:43:54.209Z,960.10
2016-07-18T01:44:31.827Z,960.12
2016-07-18T01:45:39.875Z,960.14
2016-07-18T01:46:21.957Z,960.13
2016-07-18T01:47:27.874Z,960.13
2016-07-18T01:48:29.555Z,960.10
2016-07-18T01:49:39.704Z,960.10
2016-07-18T01:50:23.495Z,960.07
2016-07-18T01:51:20.676Z,960.09
2016-07-18T01:52:21.963Z,960.06
2016-07-18T01:53:38.504Z,960.04
2016-07-18T01:54:31.055Z,960.06
2016-07-18T01:55:28.046Z,960.07
2016-07-18T01:56:20.070Z,960.07
2016-07-18T01:57:56.778Z,960.08
2016-07-18T01:58:42.064Z,960.05
2016-07-18T01:59:32.310Z,960.06
2016-07-18T02:00:42.248Z,960.05
2016-07-18T02:01:20.396Z,960.06
2016-07-18T02:02:26.553Z,960.05
2016-07-18T02:03:32.193Z,960.04
2016-07-18T02:04:38.702Z,960.05
2016-07-18T02:05:27.795Z,960.06
2016-07-18T02:06:39.976Z,960.03
2016-07-18T02:07:23.482Z,960.04
2016-07-18T02:08:34.511Z,960.07
2016-07-18T02:09:40.133Z,960.03
2016-07-18T02:10:34.420Z,960.07
2016-07-18T02:11:22.321Z,960.01
2016-07-18T02:12:20.571Z,960.04
2016-07-18T02:13:21.184Z,959.99
2016-07-18T02:14:17.824Z,960.04
2016-07-18T02:15:16.907Z,960.03
2016-07-18T02:16:21.240Z,960.04
2016-07-18T02:17:16.270Z,960.05
2016-07-18T02:18:14.408Z,960.05
2016-07-18T02:19:45.021Z,960.03
2016-07-18T02:20:42.082Z,960.01
2016-07-18T02:21:28.819Z,960.04
2016-07-18T02:22:31.331Z,960.02
2016-07-18T02:23:31.573Z,960.01
2016-07-18T02:24:21.283Z,960.02
2016-07-18T02:25:26.642Z,960.03
2016-07-18T02:26:21.706Z,960.03
2016-07-18T02:27:39.528Z,960.03
2016-07-18T02:28:32.386Z,960.04
2016-07-18T02:29:27.236Z,960.04
2016-07-18T02:30:39.650Z,960.05
2016-07-18T02:31:27.725Z,960.04
2016-07-18T02:32:37.447Z,960.04
2016-07-18T02:33:31.434Z,960.05
2016-07-18T02:34:16.667Z,960.04
2016-07-18T02:35:32.084Z,960.10
2016-07-18T02:36:24.418Z,960.09
2016-07-18T02:37:21.719Z,960.12
2016-07-18T02:38:38.850Z,960.14
2016-07-18T02:39:33.444Z,960.12
2016-07-18T02:40:45.876Z,960.12
2016-07-18T02:41:22.421Z,960.17
2016-07-18T02:42:30.770Z,960.17
2016-07-18T02:43:27.483Z,960.15
2016-07-18T02:44:24.160Z,960.17
2016-07-18T02:45:25.843Z,960.17
2016-07-18T02:46:21.913Z,960.14
2016-07-18T02:47:22.878Z,960.13
2016-07-18T02:48:28.168Z,960.17
2016-07-18T02:49:55.928Z,960.20
2016-07-18T02:50:37.251Z,960.15
2016-07-18T02:51:16.683Z,960.16
2016-07-18T02:52:31.515Z,960.14
2016-07-18T02:53:27.356Z,960.13
2016-07-18T02:54:32.645Z,960.16
2016-07-18T02:55:26.242Z,960.13
2016-07-18T02:56:17.915Z,960.14
2016-07-18T02:57:31.810Z,960.14
2016-07-18T02:58:40.467Z,960.15
2016-07-18T02:59:39.404Z,960.13
2016-07-18T03:00:27.696Z,960.08
2016-07-18T03:01:24.471Z,960.12
2016-07-18T03:02:23.561Z,960.09
2016-07-18T03:03:26.029Z,960.10
2016-07-18T03:04:31.968Z,960.13
2016-07-18T03:05:27.023Z,960.14
2016-07-18T03:06:20.620Z,960.15
2016-07-18T03:07:25.600Z,960.13
2016-07-18T03:08:27.760Z,960.11
2016-07-18T03:09:32.320Z,960.09
2016-07-18T03:10:25.008Z,960.10
2016-07-18T03:11:22.039Z,960.09
2016-07-18T03:12:24.186Z,960.08
2016-07-18T03:13:29.209Z,960.11
2016-07-18T03:14:32.921Z,960.09
2016-07-18T03:15:34.167Z,960.06
2016-07-18T03:16:18.892Z,960.07
2016-07-18T03:17:24.302Z,960.07
2016-07-18T03:18:15.574Z,960.08
2016-07-18T03:19:15.701Z,960.14
2016-07-18T03:20:22.053Z,960.12
2016-07-18T03:21:16.819Z,960.10
2016-07-18T03:22:15.280Z,960.13
2016-07-18T03:23:12.500Z,960.10
2016-07-18T03:24:28.048Z,960.16
2016-07-18T03:25:25.966Z,960.15
2016-07-18T03:26:18.487Z,960.10
2016-07-18T03:27:22.612Z,960.14
2016-07-18T03:28:23.115Z,960.09
2016-07-18T03:29:27.084Z,960.12
2016-07-18T03:30:37.417Z,960.11
2016-07-18T03:31:17.268Z,960.06
2016-07-18T03:32:25.203Z,960.10
2016-07-18T03:33:28.923Z,960.10
2016-07-18T03:34:27.741Z,960.10
2016-07-18T03:35:30.991Z,960.13
2016-07-18T03:36:21.960Z,960.13
2016-07-18T03:37:21.826Z,960.12
2016-07-18T03:38:38.438Z,960.14
2016-07-18T03:39:32.083Z,960.11
2016-07-18T03:40:38.801Z,960.12
2016-07-18T03:41:21.865Z,960.16
2016-07-18T03:42:39.349Z,960.14
2016-07-18T03:43:28.415Z,960.16
2016-07-18T03:44:27.771Z,960.19
2016-07-18T03:45:38.713Z,960.19
2016-07-18T03:46:25.523Z,960.18
2016-07-18T03:47:27.621Z,960.22
2016-07-18T03:48:32.426Z,960.21
2016-07-18T03:49:27.053Z,960.19
2016-07-18T03:50:32.142Z,960.21
2016-07-18T03:51:19.742Z,960.24
2016-07-18T03:52:21.612Z,960.28
2016-07-18T03:53:28.154Z,960.26
2016-07-18T03:54:31.034Z,960.25
2016-07-18T03:55:33.477Z,960.28
2016-07-18T03:56:16.581Z,960.30
2016-07-18T03:57:21.907Z,960.30
2016-07-18T03:58:31.808Z,960.28
2016-07-18T03:59:26.036Z,960.32
2016-07-18T04:00:42.035Z,960.34
2016-07-18T04:01:26.964Z,960.31
2016-07-18T04:02:22.978Z,960.29
2016-07-18T04:03:37.877Z,960.31
2016-07-18T04:04:49.953Z,960.25
2016-07-18T04:05:22.355Z,960.26
2016-07-18T04:06:19.125Z,960.27
2016-07-18T04:07:22.646Z,960.28
2016-07-18T04:08:26.661Z,960.31
2016-07-18T04:09:40.486Z,960.32
2016-07-18T04:10:38.812Z,960.31
2016-07-18T04:11:26.512Z,960.27
2016-07-18T04:12:32.916Z,960.29
2016-07-18T04:13:42.624Z,960.27
2016-07-18T04:14:28.198Z,960.27
2016-07-18T04:15:39.382Z,960.25
2016-07-18T04:16:30.259Z,960.26
2016-07-18T04:17:22.049Z,960.28
2016-07-18T04:18:39.087Z,960.26
2016-07-18T04:19:39.188Z,960.29
2016-07-18T04:20:42.469Z,960.28
2016-07-18T04:21:15.730Z,960.31
2016-07-18T04:22:27.970Z,960.31
2016-07-18T04:23:33.485Z,960.28
2016-07-18T04:24:15.301Z,960.29
2016-07-18T04:25:16.420Z,960.32
2016-07-18T04:26:17.085Z,960.32
2016-07-18T04:27:20.825Z,960.34
2016-07-18T04:28:20.683Z,960.35
2016-07-18T04:29:16.744Z,960.37
2016-07-18T04:30:21.379Z,960.39
2016-07-18T04:31:22.652Z,960.41
2016-07-18T04:32:20.469Z,960.41
2016-07-18T04:33:40.320Z,960.41
2016-07-18T04:34:27.508Z,960.39
2016-07-18T04:35:40.869Z,960.40
2016-07-18T04:36:27.758Z,960.41
2016-07-18T04:37:26.460Z,960.39
2016-07-18T04:38:31.992Z,960.40
2016-07-18T04:39:31.253Z,960.40
2016-07-18T04:40:38.526Z,960.37
2016-07-18T04:41:20.776Z,960.37
2016-07-18T04:42:21.562Z,960.33
2016-07-18T04:43:29.311Z,960.32
2016-07-18T04:44:33.667Z,960.36
2016-07-18T04:45:35.099Z,960.33
2016-07-18T04:46:33.089Z,960.32
2016-07-18T04:47:24.257Z,960.34
2016-07-18T04:48:33.958Z,960.34
2016-07-18T04:49:40.235Z,960.35
2016-07-18T04:50:32.469Z,960.36
2016-07-18T04:51:20.055Z,960.34
2016-07-18T04:52:28.170Z,960.36
2016-07-18T04:53:33.075Z,960.36
2016-07-18T04:54:22.987Z,960.39
2016-07-18T04:55:29.011Z,960.38
2016-07-18T04:56:16.517Z,960.41
2016-07-18T04:57:17.050Z,960.36
2016-07-18T04:58:44.198Z,960.32
2016-07-18T04:59:27.157Z,960.32
2016-07-18T05:00:22.696Z,960.38
2016-07-18T05:01:24.930Z,960.37
2016-07-18T05:02:31.906Z,960.41
2016-07-18T05:03:21.244Z,960.40
2016-07-18T05:04:26.824Z,960.42
2016-07-18T05:05:31.858Z,960.42
2016-07-18T05:06:28.086Z,960.40
2016-07-18T05:07:35.674Z,960.41
2016-07-18T05:08:24.360Z,960.41
2016-07-18T05:09:28.633Z,960.37
2016-07-18T05:10:32.447Z,960.33
2016-07-18T05:11:18.457Z,960.34
2016-07-18T05:12:20.350Z,960.33
2016-07-18T05:13:32.789Z,960.34
2016-07-18T05:14:27.206Z,960.37
2016-07-18T05:15:27.095Z,960.40
2016-07-18T05:16:14.045Z,960.37
2016-07-18T05:17:18.069Z,960.41
2016-07-18T05:18:32.634Z,960.41
2016-07-18T05:19:21.425Z,960.43
2016-07-18T05:20:21.974Z,960.42
2016-07-18T05:21:20.584Z,960.46
2016-07-18T05:22:16.666Z,960.41
2016-07-18T05:23:16.342Z,960.40
2016-07-18T05:24:17.855Z,960.37
2016-07-18T05:25:17.655Z,960.41
2016-07-18T05:26:20.591Z,960.35
2016-07-18T05:27:18.849Z,960.40
2016-07-18T05:28:12.738Z,960.42
2016-07-18T05:29:22.763Z,960.40
2016-07-18T05:30:14.184Z,960.38
2016-07-18T05:31:19.174Z,960.45
2016-07-18T05:32:16.387Z,960.50
2016-07-18T05:33:16.322Z,960.48
2016-07-18T05:34:10.882Z,960.47
2016-07-18T05:35:14.047Z,960.47
2016-07-18T05:36:16.380Z,960.50
2016-07-18T05:37:24.073Z,960.47
2016-07-18T05:38:22.669Z,960.46
2016-07-18T05:39:24.676Z,960.48
2016-07-18T05:40:17.045Z,960.52
2016-07-18T05:41:26.951Z,960.54
2016-07-18T05:42:22.954Z,960.50
2016-07-18T05:43:25.961Z,960.52
2016-07-18T05:44:26.298Z,960.48
2016-07-18T05:45:31.464Z,960.49
2016-07-18T05:46:26.994Z,960.48
2016-07-18T05:47:26.249Z,960.48
2016-07-18T05:48:27.843Z,960.52
2016-07-18T05:49:26.699Z,960.46
2016-07-18T05:50:32.716Z,960.51
2016-07-18T05:51:30.117Z,960.48
2016-07-18T05:52:24.241Z,960.52
2016-07-18T05:53:22.012Z,960.52
2016-07-18T05:54:26.236Z,960.55
2016-07-18T05:55:23.671Z,960.58
2016-07-18T05:56:21.673Z,960.59
2016-07-18T05:57:23.127Z,960.64
2016-07-18T05:58:22.677Z,960.62
2016-07-18T05:59:30.212Z,960.66
2016-07-18T06:00:27.746Z,960.63
2016-07-18T06:01:22.903Z,960.64
2016-07-18T06:02:27.904Z,960.62
2016-07-18T06:03:32.481Z,960.65
2016-07-18T06:04:25.992Z,960.64
2016-07-18T06:05:19.387Z,960.63
2016-07-18T06:06:17.139Z,960.64
2016-07-18T06:07:41.666Z,960.61
2016-07-18T06:08:39.966Z,960.61
2016-07-18T06:09:35.087Z,960.64
2016-07-18T06:10:27.699Z,960.62
2016-07-18T06:11:26.274Z,960.65
2016-07-18T06:12:49.198Z,960.65
2016-07-18T06:13:38.369Z,960.64
2016-07-18T06:14:38.497Z,960.62
2016-07-18T06:15:56.137Z,960.62
2016-07-18T06:16:40.885Z,960.65
2016-07-18T06:17:26.355Z,960.67
2016-07-18T06:18:26.354Z,960.65
2016-07-18T06:19:26.339Z,960.60
2016-07-18T06:20:27.035Z,960.60
2016-07-18T06:21:32.054Z,960.63
2016-07-18T06:22:39.704Z,960.61
2016-07-18T06:23:16.665Z,960.60
2016-07-18T06:24:37.917Z,960.62
2016-07-18T06:25:33.618Z,960.62
2016-07-18T06:26:48.163Z,960.63
2016-07-18T06:27:27.285Z,960.64
2016-07-18T06:28:40.413Z,960.68
2016-07-18T06:29:45.625Z,960.60
2016-07-18T06:30:39.451Z,960.66
2016-07-18T06:31:30.604Z,960.65
2016-07-18T06:32:26.639Z,960.66
2016-07-18T06:33:47.406Z,960.62
2016-07-18T06:34:40.300Z,960.63
2016-07-18T06:35:27.448Z,960.66
2016-07-18T06:36:32.035Z,960.63
2016-07-18T06:37:42.818Z,960.64
2016-07-18T06:38:31.058Z,960.64
2016-07-18T06:39:26.049Z,960.62
2016-07-18T06:40:31.756Z,960.62
2016-07-18T06:41:31.676Z,960.60
2016-07-18T06:42:38.451Z,960.66
2016-07-18T06:43:47.827Z,960.64
2016-07-18T06:44:26.833Z,960.64
2016-07-18T06:45:38.456Z,960.64
2016-07-18T06:46:39.481Z,960.62
2016-07-18T06:47:44.338Z,960.63
2016-07-18T06:48:25.957Z,960.63
2016-07-18T06:49:31.656Z,960.66
2016-07-18T06:50:37.530Z,960.64
2016-07-18T06:51:32.500Z,960.66
2016-07-18T06:52:40.574Z,960.62
2016-07-18T06:53:38.764Z,960.66
2016-07-18T06:54:48.988Z,960.64
2016-07-18T06:55:39.864Z,960.62
2016-07-18T06:56:45.172Z,960.63
2016-07-18T06:57:25.953Z,960.67
2016-07-18T06:58:29.561Z,960.64
2016-07-18T06:59:30.812Z,960.60
2016-07-18T07:00:30.644Z,960.66
2016-07-18T07:01:33.474Z,960.67
2016-07-18T07:02:39.501Z,960.65
2016-07-18T07:03:39.356Z,960.71
2016-07-18T07:04:39.429Z,960.69
2016-07-18T07:05:39.811Z,960.68
2016-07-18T07:06:45.933Z,960.66
2016-07-18T07:07:27.215Z,960.66
2016-07-18T07:08:39.855Z,960.66
2016-07-18T07:09:27.185Z,960.63
2016-07-18T07:10:29.258Z,960.62
2016-07-18T07:11:44.870Z,960.61
2016-07-18T07:12:14.271Z,960.65
2016-07-18T07:13:39.411Z,960.63
2016-07-18T07:14:33.019Z,960.59
2016-07-18T07:15:40.798Z,960.58
2016-07-18T07:16:32.617Z,960.58
2016-07-18T07:17:46.574Z,960.54
2016-07-18T07:18:44.173Z,960.57
2016-07-18T07:19:40.748Z,960.58
2016-07-18T07:20:40.779Z,960.54
2016-07-18T07:21:26.863Z,960.55
2016-07-18T07:23:13.103Z,960.61
2016-07-18T07:24:37.348Z,960.59
2016-07-18T07:25:33.127Z,960.55
2016-07-18T07:26:36.862Z,960.58
2016-07-18T07:27:45.485Z,960.59
2016-07-18T07:28:39.776Z,960.58
2016-07-18T07:29:38.426Z,960.57
2016-07-18T07:30:40.360Z,960.53
2016-07-18T07:31:38.837Z,960.63
2016-07-18T07:32:31.376Z,960.57
2016-07-18T07:33:31.058Z,960.58
2016-07-18T07:34:40.492Z,960.60
2016-07-18T07:35:44.032Z,960.54
2016-07-18T07:36:32.720Z,960.54
2016-07-18T07:37:32.581Z,960.55
2016-07-18T07:38:24.195Z,960.59
2016-07-18T07:39:32.504Z,960.60
2016-07-18T07:40:26.562Z,960.60
2016-07-18T07:41:39.335Z,960.68
2016-07-18T07:42:34.526Z,960.63
2016-07-18T07:43:27.824Z,960.64
2016-07-18T07:44:27.037Z,960.62
2016-07-18T07:45:38.304Z,960.62
2016-07-18T07:46:23.938Z,960.63
2016-07-18T07:47:38.352Z,960.65
2016-07-18T07:48:32.002Z,960.61
2016-07-18T07:49:31.698Z,960.62
2016-07-18T07:50:39.639Z,960.62
2016-07-18T07:51:40.167Z,960.60
2016-07-18T07:52:40.537Z,960.62
2016-07-18T07:53:39.016Z,960.62
2016-07-18T07:54:25.529Z,960.67
2016-07-18T07:55:40.357Z,960.62
2016-07-18T07:56:31.346Z,960.63
2016-07-18T07:57:40.514Z,960.63
2016-07-18T07:58:27.691Z,960.63
2016-07-18T07:59:46.417Z,960.63
2016-07-18T08:00:25.547Z,960.63
2016-07-18T08:01:38.548Z,960.63
2016-07-18T08:02:39.175Z,960.63
2016-07-18T08:03:32.926Z,960.62
2016-07-18T08:04:20.295Z,960.63
2016-07-18T08:05:38.210Z,960.62
2016-07-18T08:06:32.060Z,960.64
2016-07-18T08:07:44.052Z,960.59
2016-07-18T08:08:42.570Z,960.62
2016-07-18T08:09:33.105Z,960.60
2016-07-18T08:10:51.023Z,960.58
2016-07-18T08:11:37.692Z,960.57
2016-07-18T08:12:39.720Z,960.54
2016-07-18T08:13:16.444Z,960.55
2016-07-18T08:14:15.497Z,960.59
2016-07-18T08:15:16.249Z,960.55
2016-07-18T08:16:16.889Z,960.53
2016-07-18T08:17:15.404Z,960.54
2016-07-18T08:18:20.356Z,960.52
2016-07-18T08:19:23.623Z,960.45
2016-07-18T08:20:15.085Z,960.48
2016-07-18T08:21:30.609Z,960.51
2016-07-18T08:22:13.446Z,960.51
2016-07-18T08:23:35.221Z,960.51
2016-07-18T08:24:26.879Z,960.57
2016-07-18T08:25:20.934Z,960.56
2016-07-18T08:26:14.347Z,960.55
2016-07-18T08:27:34.062Z,960.57
2016-07-18T08:28:45.975Z,960.58
2016-07-18T08:29:44.418Z,960.56
2016-07-18T08:30:21.538Z,960.55
2016-07-18T08:31:33.701Z,960.54
2016-07-18T08:32:40.498Z,960.53
2016-07-18T08:33:32.037Z,960.51
2016-07-18T08:34:39.642Z,960.50
2016-07-18T08:35:25.910Z,960.56
2016-07-18T08:36:33.278Z,960.53
2016-07-18T08:37:31.181Z,960.48
2016-07-18T08:38:38.845Z,960.51
2016-07-18T08:39:33.584Z,960.46
2016-07-18T08:40:21.212Z,960.49
2016-07-18T08:41:27.310Z,960.48
2016-07-18T08:42:28.010Z,960.49
2016-07-18T08:43:27.400Z,960.49
2016-07-18T08:44:25.710Z,960.52
2016-07-18T08:45:28.012Z,960.53
2016-07-18T08:46:33.720Z,960.52
2016-07-18T08:47:26.280Z,960.52
2016-07-18T08:48:34.048Z,960.53
2016-07-18T08:49:34.052Z,960.52
2016-07-18T08:50:23.538Z,960.49
2016-07-18T08:51:32.950Z,960.51
2016-07-18T08:52:34.017Z,960.52
2016-07-18T08:53:32.385Z,960.49
2016-07-18T08:54:26.031Z,960.50
2016-07-18T08:55:21.568Z,960.55
2016-07-18T08:56:32.255Z,960.49
2016-07-18T08:57:33.448Z,960.51
2016-07-18T08:58:38.594Z,960.55
2016-07-18T08:59:40.052Z,960.54
2016-07-18T09:00:27.213Z,960.52
2016-07-18T09:01:28.715Z,960.55
2016-07-18T09:02:33.777Z,960.56
2016-07-18T09:03:22.652Z,960.56
2016-07-18T09:04:33.397Z,960.58
2016-07-18T09:05:25.947Z,960.53
2016-07-18T09:06:26.948Z,960.55
2016-07-18T09:07:33.044Z,960.55
2016-07-18T09:08:43.961Z,960.56
2016-07-18T09:09:39.642Z,960.52
2016-07-18T09:10:21.446Z,960.51
2016-07-18T09:11:26.421Z,960.55
2016-07-18T09:12:43.297Z,960.51
2016-07-18T09:13:25.367Z,960.51
2016-07-18T09:14:27.279Z,960.51
2016-07-18T09:15:45.204Z,960.50
2016-07-18T09:16:38.601Z,960.50
2016-07-18T09:17:27.515Z,960.48
2016-07-18T09:18:42.739Z,960.44
2016-07-18T09:19:16.304Z,960.46
2016-07-18T09:20:27.112Z,960.45
2016-07-18T09:21:33.166Z,960.46
2016-07-18T09:22:27.309Z,960.41
2016-07-18T09:23:39.769Z,960.45
2016-07-18T09:24:25.654Z,960.44
2016-07-18T09:25:41.993Z,960.50
2016-07-18T09:26:30.936Z,960.53
2016-07-18T09:27:32.995Z,960.46
2016-07-18T09:28:31.684Z,960.47
2016-07-18T09:29:40.129Z,960.48
2016-07-18T09:30:39.662Z,960.50
2016-07-18T09:31:43.234Z,960.51
2016-07-18T09:32:38.277Z,960.51
2016-07-18T09:33:33.809Z,960.52
2016-07-18T09:34:36.745Z,960.52
2016-07-18T09:35:30.806Z,960.53
2016-07-18T09:36:26.442Z,960.52
2016-07-18T09:37:27.739Z,960.52
2016-07-18T09:38:31.777Z,960.54
2016-07-18T09:39:39.015Z,960.54
2016-07-18T09:40:45.739Z,960.54
2016-07-18T09:41:27.005Z,960.56
2016-07-18T09:42:34.060Z,960.55
2016-07-18T09:43:43.989Z,960.56
2016-07-18T09:44:40.895Z,960.54
2016-07-18T09:45:13.265Z,960.57
2016-07-18T09:46:32.142Z,960.57
2016-07-18T09:47:27.112Z,960.53
2016-07-18T09:48:27.377Z,960.54
2016-07-18T09:49:31.151Z,960.50
2016-07-18T09:50:35.257Z,960.51
2016-07-18T09:51:31.980Z,960.51
2016-07-18T09:52:39.518Z,960.50
2016-07-18T09:53:39.197Z,960.47
2016-07-18T09:54:34.633Z,960.48
2016-07-18T09:55:37.146Z,960.47
2016-07-18T09:56:28.623Z,960.51
2016-07-18T09:57:37.481Z,960.51
2016-07-18T09:58:32.539Z,960.50
2016-07-18T09:59:28.489Z,960.49
2016-07-18T10:00:40.892Z,960.47
2016-07-18T10:01:43.749Z,960.45
2016-07-18T10:02:32.247Z,960.49
2016-07-18T10:03:40.416Z,960.50
2016-07-18T10:04:42.013Z,960.48
2016-07-18T10:05:16.172Z,960.52
2016-07-18T10:06:30.905Z,960.46
2016-07-18T10:07:27.703Z,960.48
2016-07-18T10:08:26.143Z,960.47
2016-07-18T10:09:22.405Z,960.47
2016-07-18T10:10:32.424Z,960.44
2016-07-18T10:11:27.994Z,960.47
2016-07-18T10:12:34.100Z,960.46
2016-07-18T10:13:39.170Z,960.44
2016-07-18T10:14:46.418Z,960.44
2016-07-18T10:15:33.460Z,960.47
2016-07-18T10:16:38.792Z,960.45
2016-07-18T10:17:23.589Z,960.46
2016-07-18T10:18:27.045Z,960.43
2016-07-18T10:19:31.804Z,960.47
2016-07-18T10:20:38.219Z,960.47
2016-07-18T10:21:39.663Z,960.49
2016-07-18T10:22:40.665Z,960.47
2016-07-18T10:23:39.851Z,960.48
2016-07-18T10:24:40.415Z,960.45
2016-07-18T10:25:41.243Z,960.39
2016-07-18T10:26:30.619Z,960.41
2016-07-18T10:27:37.215Z,960.39
2016-07-18T10:28:27.734Z,960.38
2016-07-18T10:29:27.420Z,960.48
2016-07-18T10:30:28.025Z,960.43
2016-07-18T10:31:33.050Z,960.41
2016-07-18T10:32:22.679Z,960.42
2016-07-18T10:33:38.881Z,960.43
2016-07-18T10:34:46.878Z,960.52
2016-07-18T10:35:24.798Z,960.47
2016-07-18T10:36:39.949Z,960.48
2016-07-18T10:37:39.428Z,960.48
2016-07-18T10:38:29.492Z,960.47
2016-07-18T10:39:43.742Z,960.50
2016-07-18T10:40:37.585Z,960.53
2016-07-18T10:41:31.914Z,960.48
2016-07-18T10:42:31.359Z,960.46
2016-07-18T10:43:39.327Z,960.43
2016-07-18T10:44:40.817Z,960.48
2016-07-18T10:45:39.428Z,960.45
2016-07-18T10:46:32.705Z,960.43
2016-07-18T10:47:32.683Z,960.43
2016-07-18T10:48:39.057Z,960.42
2016-07-18T10:49:39.890Z,960.40
2016-07-18T10:50:42.995Z,960.39
2016-07-18T10:51:37.047Z,960.34
2016-07-18T10:52:24.922Z,960.39
2016-07-18T10:53:39.329Z,960.37
2016-07-18T10:54:33.296Z,960.37
2016-07-18T10:55:15.390Z,960.34
2016-07-18T10:56:28.635Z,960.42
2016-07-18T10:57:38.118Z,960.43
2016-07-18T10:58:40.123Z,960.36
2016-07-18T10:59:28.531Z,960.39
2016-07-18T11:00:32.851Z,960.41
2016-07-18T11:01:47.029Z,960.39
2016-07-18T11:02:38.156Z,960.39
2016-07-18T11:03:32.453Z,960.40
2016-07-18T11:04:26.622Z,960.42
2016-07-18T11:05:42.842Z,960.41
2016-07-18T11:06:39.760Z,960.40
2016-07-18T11:07:31.667Z,960.41
2016-07-18T11:08:40.358Z,960.41
2016-07-18T11:09:26.903Z,960.40
2016-07-18T11:10:23.464Z,960.40
2016-07-18T11:11:39.462Z,960.41
2016-07-18T11:12:32.035Z,960.43
2016-07-18T11:13:40.174Z,960.38
2016-07-18T11:14:32.084Z,960.37
2016-07-18T11:15:33.576Z,960.35
2016-07-18T11:16:41.318Z,960.35
2016-07-18T11:17:32.656Z,960.36
2016-07-18T11:18:26.593Z,960.37
2016-07-18T11:19:32.315Z,960.39
2016-07-18T11:20:38.510Z,960.40
2016-07-18T11:21:28.020Z,960.36
2016-07-18T11:22:23.534Z,960.35
2016-07-18T11:23:30.859Z,960.35
2016-07-18T11:24:39.738Z,960.40
2016-07-18T11:25:37.770Z,960.36
2016-07-18T11:26:26.764Z,960.39
2016-07-18T11:27:32.678Z,960.35
2016-07-18T11:28:34.042Z,960.39
2016-07-18T11:29:33.224Z,960.36
2016-07-18T11:30:45.690Z,960.35
2016-07-18T11:31:32.756Z,960.37
2016-07-18T11:32:40.182Z,960.40
2016-07-18T11:33:35.797Z,960.36
2016-07-18T11:34:31.517Z,960.37
2016-07-18T11:35:32.283Z,960.37
2016-07-18T11:36:32.026Z,960.33
2016-07-18T11:37:39.844Z,960.39
2016-07-18T11:38:33.418Z,960.36
2016-07-18T11:39:40.200Z,960.32
2016-07-18T11:40:33.323Z,960.32
2016-07-18T11:41:38.427Z,960.36
2016-07-18T11:42:43.139Z,960.25
2016-07-18T11:43:49.163Z,960.24
2016-07-18T11:44:44.394Z,960.25
2016-07-18T11:45:31.131Z,960.25
2016-07-18T11:46:31.092Z,960.24
2016-07-18T11:47:27.494Z,960.21
2016-07-18T11:48:40.659Z,960.21
2016-07-18T11:49:47.150Z,960.16
2016-07-18T11:50:39.575Z,960.19
2016-07-18T11:51:24.168Z,960.21
2016-07-18T11:52:29.897Z,960.18
2016-07-18T11:53:32.512Z,960.21
2016-07-18T11:54:28.452Z,960.14
2016-07-18T11:55:31.357Z,960.17
2016-07-18T11:56:32.314Z,960.19
2016-07-18T11:57:37.956Z,960.15
2016-07-18T11:58:45.951Z,960.14
2016-07-18T11:59:39.365Z,960.15
2016-07-18T12:00:39.089Z,960.15
2016-07-18T12:01:32.754Z,960.18
2016-07-18T12:02:38.471Z,960.14
2016-07-18T12:03:43.340Z,960.18
2016-07-18T12:04:33.498Z,960.14
2016-07-18T12:05:31.686Z,960.14
2016-07-18T12:06:33.452Z,960.18
2016-07-18T12:07:24.070Z,960.13
2016-07-18T12:08:27.305Z,960.10
2016-07-18T12:09:31.880Z,960.11
2016-07-18T12:10:33.593Z,960.10
2016-07-18T12:11:39.920Z,960.05
2016-07-18T12:12:30.738Z,960.14
2016-07-18T12:13:39.273Z,960.08
2016-07-18T12:14:32.903Z,960.09
2016-07-18T12:15:39.865Z,960.10
2016-07-18T12:16:26.131Z,960.07
2016-07-18T12:17:43.745Z,960.10
2016-07-18T12:18:27.446Z,960.11
2016-07-18T12:19:33.915Z,960.13
2016-07-18T12:20:33.431Z,960.10
2016-07-18T12:21:44.902Z,960.13
2016-07-18T12:22:33.648Z,960.10
2016-07-18T12:23:33.925Z,960.09
2016-07-18T12:24:26.818Z,960.09
2016-07-18T12:25:39.152Z,960.10
2016-07-18T12:26:27.916Z,960.09
2016-07-18T12:27:32.738Z,960.09
2016-07-18T12:28:31.836Z,960.13
2016-07-18T12:29:26.513Z,960.13